createdAt,value
2018-07-05T00:01:01.328Z,12.83
2018-07-05T00:03:42.428Z,13.40
2018-07-05T00:06:29.774Z,13.73
2018-07-05T00:09:16.942Z,12.43
2018-07-05T00:12:04.165Z,13.17
2018-07-05T00:14:45.177Z,12.93
2018-07-05T00:17:32.400Z,13.00
2018-07-05T00:20:19.618Z,13.30
2018-07-05T00:23:07.144Z,14.40
2018-07-05T00:25:55.338Z,14.97
2018-07-05T00:28:42.507Z,13.93
2018-07-05T00:31:30.543Z,12.27
2018-07-05T00:34:17.750Z,12.57
2018-07-05T00:37:04.994Z,13.30
2018-07-05T00:39:51.891Z,11.97
2018-07-05T00:42:39.717Z,13.00
2018-07-05T00:45:26.740Z,13.50
2018-07-05T00:48:14.126Z,13.47
2018-07-05T00:51:00.940Z,13.17
2018-07-05T00:53:42.098Z,13.83
2018-07-05T00:56:28.975Z,13.20
2018-07-05T00:59:16.210Z,13.00
2018-07-05T01:02:03.515Z,13.00
2018-07-05T01:04:50.551Z,12.83
2018-07-05T01:07:37.858Z,12.83
2018-07-05T01:10:24.895Z,13.27
2018-07-05T01:13:12.789Z,13.90
2018-07-05T01:15:59.801Z,13.30
2018-07-05T01:18:46.877Z,12.83
2018-07-05T01:21:34.028Z,13.67
2018-07-05T01:24:21.327Z,14.93
2018-07-05T01:27:08.395Z,13.57
2018-07-05T01:29:56.056Z,13.20
2018-07-05T01:32:43.860Z,14.57
2018-07-05T01:35:30.920Z,14.20
2018-07-05T01:38:18.171Z,14.27
2018-07-05T01:41:05.156Z,14.30
2018-07-05T01:43:53.203Z,14.43
2018-07-05T01:46:41.257Z,14.27
2018-07-05T01:49:23.090Z,14.47
2018-07-05T01:52:13.997Z,15.13
2018-07-05T01:55:00.684Z,13.63
2018-07-05T01:57:47.619Z,14.47
2018-07-05T02:00:35.636Z,14.53
2018-07-05T02:03:22.872Z,14.50
2018-07-05T02:06:10.198Z,14.30
2018-07-05T02:08:57.606Z,14.10
2018-07-05T02:11:44.684Z,13.70
2018-07-05T02:14:32.791Z,14.57
2018-07-05T02:17:19.896Z,14.87
2018-07-05T02:20:07.212Z,14.80
2018-07-05T02:22:54.998Z,14.90
2018-07-05T02:25:42.269Z,15.43
2018-07-05T02:28:29.573Z,16.10
2018-07-05T02:31:16.798Z,14.60
2018-07-05T02:34:08.950Z,15.23
2018-07-05T02:36:56.100Z,15.60
2018-07-05T02:39:48.292Z,15.30
2018-07-05T02:42:35.510Z,15.27
2018-07-05T02:45:22.630Z,14.37
2018-07-05T02:48:10.299Z,13.83
2018-07-05T02:50:57.388Z,15.20
2018-07-05T02:53:44.596Z,15.20
2018-07-05T02:56:31.815Z,15.50
2018-07-05T02:59:19.142Z,15.33
2018-07-05T03:02:06.201Z,15.17
2018-07-05T03:04:53.375Z,15.73
2018-07-05T03:07:40.508Z,15.33
2018-07-05T03:10:27.472Z,15.50
2018-07-05T03:13:14.569Z,15.50
2018-07-05T03:16:01.529Z,15.53
2018-07-05T03:18:48.833Z,15.10
2018-07-05T03:21:35.945Z,15.47
2018-07-05T03:24:22.911Z,14.57
2018-07-05T03:27:10.214Z,15.27
2018-07-05T03:29:57.518Z,15.60
2018-07-05T03:32:45.155Z,14.73
2018-07-05T03:35:32.530Z,16.20
2018-07-05T03:38:19.698Z,14.47
2018-07-05T03:41:07.114Z,14.23
2018-07-05T03:43:54.106Z,13.80
2018-07-05T03:46:41.251Z,16.07
2018-07-05T03:49:28.502Z,14.43
2018-07-05T03:52:16.680Z,15.03
2018-07-05T03:55:03.728Z,14.90
2018-07-05T03:57:50.953Z,15.73
2018-07-05T04:00:38.183Z,16.23
2018-07-05T04:03:25.353Z,15.27
2018-07-05T04:06:12.417Z,16.07
2018-07-05T04:08:59.434Z,14.60
2018-07-05T04:11:47.292Z,15.17
2018-07-05T04:14:34.376Z,12.63
2018-07-05T04:17:21.356Z,13.83
2018-07-05T04:20:08.300Z,15.37
2018-07-05T04:22:55.436Z,14.60
2018-07-05T04:25:42.717Z,15.40
2018-07-05T04:28:30.321Z,14.80
2018-07-05T04:31:17.502Z,14.83
2018-07-05T04:34:04.733Z,14.80
2018-07-05T04:36:51.841Z,13.77
2018-07-05T04:39:38.953Z,14.27
2018-07-05T04:42:25.978Z,14.23
2018-07-05T04:45:13.347Z,13.70
2018-07-05T04:48:01.491Z,14.43
2018-07-05T04:50:48.726Z,12.87
2018-07-05T04:53:30.451Z,14.23
2018-07-05T04:56:17.622Z,14.30
2018-07-05T04:59:04.855Z,14.70
2018-07-05T05:01:51.990Z,14.80
2018-07-05T05:04:39.221Z,14.70
2018-07-05T05:07:26.829Z,13.07
2018-07-05T05:10:13.945Z,14.20
2018-07-05T05:13:01.305Z,16.67
2018-07-05T05:15:48.428Z,14.33
2018-07-05T05:18:35.842Z,13.37
2018-07-05T05:21:23.164Z,13.67
2018-07-05T05:24:10.568Z,13.33
2018-07-05T05:26:58.842Z,14.23
2018-07-05T05:29:45.819Z,12.53
2018-07-05T05:32:33.068Z,13.40
2018-07-05T05:35:20.089Z,15.80
2018-07-05T05:38:07.250Z,14.77
2018-07-05T05:40:54.360Z,15.50
2018-07-05T05:43:41.814Z,14.90
2018-07-05T05:46:29.112Z,14.10
2018-07-05T05:49:16.103Z,16.27
2018-07-05T05:52:03.487Z,16.23
2018-07-05T05:54:51.281Z,17.07
2018-07-05T05:57:39.014Z,19.50
2018-07-05T06:00:26.496Z,18.77
2018-07-05T06:03:14.309Z,19.27
2018-07-05T06:06:02.642Z,17.47
2018-07-05T06:08:49.897Z,16.50
2018-07-05T06:11:37.060Z,16.47
2018-07-05T06:14:25.016Z,14.73
2018-07-05T06:17:12.024Z,14.87
2018-07-05T06:19:59.776Z,14.33
2018-07-05T06:22:46.981Z,14.43
2018-07-05T06:25:28.025Z,13.80
2018-07-05T06:28:15.096Z,13.43
2018-07-05T06:31:02.153Z,13.60
2018-07-05T06:33:49.667Z,17.40
2018-07-05T06:36:37.025Z,17.60
2018-07-05T06:39:24.808Z,17.50
2018-07-05T06:42:12.081Z,17.63
2018-07-05T06:44:59.461Z,15.70
2018-07-05T06:47:46.376Z,16.13
2018-07-05T06:50:34.014Z,15.33
2018-07-05T06:53:21.839Z,14.77
2018-07-05T06:56:09.277Z,13.90
2018-07-05T06:58:56.967Z,12.67
2018-07-05T07:01:44.092Z,13.30
2018-07-05T07:04:31.336Z,14.13
2018-07-05T07:07:18.441Z,13.60
2018-07-05T07:10:05.370Z,14.37
2018-07-05T07:12:53.217Z,13.83
2018-07-05T07:15:40.480Z,14.33
2018-07-05T07:18:28.300Z,12.93
2018-07-05T07:21:15.472Z,11.77
2018-07-05T07:24:02.759Z,12.07
2018-07-05T07:26:44.077Z,11.33
2018-07-05T07:29:31.925Z,10.37
2018-07-05T07:32:20.097Z,10.80
2018-07-05T07:35:07.433Z,12.17
2018-07-05T07:37:55.141Z,10.37
2018-07-05T07:40:42.061Z,10.87
2018-07-05T07:43:10.944Z,10.33
2018-07-05T07:45:39.784Z,9.40
2018-07-05T07:48:08.971Z,11.90
2018-07-05T07:50:38.126Z,8.63
2018-07-05T07:53:07.372Z,9.33
2018-07-05T07:55:36.255Z,9.23
2018-07-05T07:58:04.999Z,9.20
2018-07-05T08:00:34.633Z,9.53
2018-07-05T08:03:03.982Z,9.07
2018-07-05T08:05:33.392Z,7.93
2018-07-05T08:08:01.802Z,8.87
2018-07-05T08:10:30.813Z,8.67
2018-07-05T08:13:00.298Z,8.20
2018-07-05T08:15:29.605Z,8.10
2018-07-05T08:17:58.291Z,7.67
2018-07-05T08:20:26.993Z,6.97
2018-07-05T08:22:55.911Z,8.40
2018-07-05T08:25:25.153Z,7.00
2018-07-05T08:27:55.736Z,7.00
2018-07-05T08:30:24.906Z,6.47
2018-07-05T08:32:54.857Z,7.27
2018-07-05T08:35:24.113Z,6.80
2018-07-05T08:37:52.687Z,7.77
2018-07-05T08:40:21.875Z,7.23
2018-07-05T08:42:50.979Z,8.43
2018-07-05T08:45:20.636Z,7.37
2018-07-05T08:47:50.382Z,8.27
2018-07-05T08:50:20.078Z,8.10
2018-07-05T08:52:50.050Z,7.33
2018-07-05T08:55:19.373Z,8.10
2018-07-05T08:57:48.459Z,7.60
2018-07-05T09:00:17.739Z,7.67
2018-07-05T09:02:47.652Z,7.90
2018-07-05T09:05:17.075Z,8.43
2018-07-05T09:07:45.957Z,7.90
2018-07-05T09:10:15.182Z,8.40
2018-07-05T09:12:46.398Z,7.30
2018-07-05T09:15:16.339Z,7.10
2018-07-05T09:17:45.376Z,7.60
2018-07-05T09:20:14.213Z,7.83
2018-07-05T09:22:43.563Z,8.73
2018-07-05T09:25:13.848Z,7.30
2018-07-05T09:27:43.839Z,7.30
2018-07-05T09:30:12.776Z,6.83
2018-07-05T09:32:41.776Z,7.47
2018-07-05T09:35:11.540Z,6.67
2018-07-05T09:37:40.903Z,7.17
2018-07-05T09:40:12.725Z,7.40
2018-07-05T09:42:41.912Z,7.37
2018-07-05T09:45:11.504Z,7.17
2018-07-05T09:47:40.683Z,7.83
2018-07-05T09:50:11.209Z,6.70
2018-07-05T09:52:42.867Z,6.70
2018-07-05T09:55:12.646Z,6.63
2018-07-05T09:57:41.244Z,6.60
2018-07-05T10:00:12.035Z,6.77
2018-07-05T10:02:41.923Z,6.50
2018-07-05T10:05:11.644Z,6.27
2018-07-05T10:07:44.514Z,7.00
2018-07-05T10:10:15.318Z,6.67
2018-07-05T10:12:45.892Z,6.80
2018-07-05T10:15:15.188Z,7.23
2018-07-05T10:17:44.124Z,6.80
2018-07-05T10:20:13.047Z,7.00
2018-07-05T10:22:43.183Z,6.70
2018-07-05T10:25:11.801Z,7.30
2018-07-05T10:27:51.228Z,7.37
2018-07-05T10:30:39.706Z,6.50
2018-07-05T10:33:27.204Z,7.00
2018-07-05T10:35:56.269Z,6.73
2018-07-05T10:38:24.939Z,7.07
2018-07-05T10:41:13.283Z,7.50
2018-07-05T10:44:02.785Z,7.23
2018-07-05T10:46:50.979Z,7.03
2018-07-05T10:49:38.646Z,6.70
2018-07-05T10:52:27.888Z,6.63
2018-07-05T10:55:09.768Z,6.90
2018-07-05T10:57:57.214Z,6.87
2018-07-05T11:00:44.804Z,6.40
2018-07-05T11:03:32.763Z,6.10
2018-07-05T11:06:22.169Z,5.93
2018-07-05T11:09:10.235Z,4.70
2018-07-05T11:11:57.721Z,4.87
2018-07-05T11:14:45.446Z,5.37
2018-07-05T11:17:32.928Z,5.07
2018-07-05T11:20:20.496Z,4.77
2018-07-05T11:23:09.126Z,4.80
2018-07-05T11:25:56.690Z,5.10
2018-07-05T11:28:44.606Z,5.83
2018-07-05T11:31:32.139Z,8.80
2018-07-05T11:34:19.381Z,4.90
2018-07-05T11:37:06.533Z,4.57
2018-07-05T11:39:53.695Z,4.47
2018-07-05T11:42:42.069Z,5.30
2018-07-05T11:45:29.959Z,4.50
2018-07-05T11:48:18.324Z,4.33
2018-07-05T11:51:05.647Z,4.67
2018-07-05T11:53:54.179Z,4.97
2018-07-05T11:56:42.578Z,4.60
2018-07-05T11:59:31.095Z,4.80
2018-07-05T12:02:20.424Z,4.63
2018-07-05T12:05:09.253Z,4.97
2018-07-05T12:07:57.315Z,5.07
2018-07-05T12:10:47.066Z,4.77
2018-07-05T12:13:36.187Z,4.60
2018-07-05T12:16:25.295Z,4.80
2018-07-05T12:19:14.095Z,4.67
2018-07-05T12:22:02.475Z,5.00
2018-07-05T12:24:49.983Z,5.20
2018-07-05T12:27:37.885Z,5.30
2018-07-05T12:30:26.300Z,4.80
2018-07-05T12:33:14.474Z,4.73
2018-07-05T12:36:02.556Z,4.77
2018-07-05T12:38:50.671Z,5.20
2018-07-05T12:41:38.984Z,4.83
2018-07-05T12:44:26.922Z,5.40
2018-07-05T12:47:15.063Z,4.73
2018-07-05T12:49:56.728Z,5.23
2018-07-05T12:52:44.295Z,5.40
2018-07-05T12:55:32.311Z,5.80
2018-07-05T12:58:20.540Z,5.33
2018-07-05T13:01:08.515Z,4.93
2018-07-05T13:03:56.770Z,5.53
2018-07-05T13:06:44.896Z,5.50
2018-07-05T13:09:33.991Z,5.90
2018-07-05T13:12:22.005Z,5.23
2018-07-05T13:15:10.959Z,5.63
2018-07-05T13:17:58.956Z,5.40
2018-07-05T13:20:47.455Z,5.60
2018-07-05T13:23:35.399Z,5.30
2018-07-05T13:26:23.752Z,6.30
2018-07-05T13:29:12.643Z,5.40
2018-07-05T13:31:59.931Z,5.00
2018-07-05T13:34:47.969Z,5.40
2018-07-05T13:37:36.315Z,5.33
2018-07-05T13:40:25.120Z,5.40
2018-07-05T13:43:13.262Z,5.20
2018-07-05T13:46:00.942Z,5.73
2018-07-05T13:48:50.199Z,5.30
2018-07-05T13:51:38.872Z,5.37
2018-07-05T13:54:27.670Z,5.67
2018-07-05T13:57:15.487Z,6.07
2018-07-05T14:00:05.691Z,5.97
2018-07-05T14:02:54.111Z,6.10
2018-07-05T14:05:42.221Z,5.90
2018-07-05T14:08:30.369Z,5.93
2018-07-05T14:11:18.712Z,5.97
2018-07-05T14:14:06.355Z,6.37
2018-07-05T14:16:55.275Z,6.70
2018-07-05T14:19:43.999Z,5.77
2018-07-05T14:22:26.257Z,7.13
2018-07-05T14:25:13.881Z,6.00
2018-07-05T14:28:01.687Z,6.00
2018-07-05T14:30:49.774Z,6.10
2018-07-05T14:33:38.506Z,6.50
2018-07-05T14:36:25.584Z,6.40
2018-07-05T14:39:14.015Z,6.00
2018-07-05T14:41:56.610Z,6.33
2018-07-05T14:44:44.657Z,6.00
2018-07-05T14:47:32.684Z,6.00
2018-07-05T14:50:20.274Z,6.00
2018-07-05T14:53:09.071Z,5.97
2018-07-05T14:55:56.656Z,5.67
2018-07-05T14:58:45.039Z,6.03
2018-07-05T15:01:32.265Z,5.93
2018-07-05T15:04:20.145Z,6.13
2018-07-05T15:07:07.297Z,5.90
2018-07-05T15:09:54.534Z,6.40
2018-07-05T15:12:42.264Z,6.00
2018-07-05T15:15:29.635Z,5.57
2018-07-05T15:18:11.596Z,5.80
2018-07-05T15:20:58.961Z,5.90
2018-07-05T15:23:46.673Z,6.03
2018-07-05T15:26:34.451Z,6.43
2018-07-05T15:29:21.578Z,5.93
2018-07-05T15:32:08.863Z,6.20
2018-07-05T15:34:50.191Z,5.67
2018-07-05T15:37:37.312Z,6.20
2018-07-05T15:40:24.933Z,5.87
2018-07-05T15:43:12.848Z,5.30
2018-07-05T15:46:00.109Z,5.13
2018-07-05T15:48:47.316Z,5.60
2018-07-05T15:51:35.738Z,5.37
2018-07-05T15:54:16.835Z,6.00
2018-07-05T15:57:04.044Z,5.37
2018-07-05T15:59:51.159Z,5.40
2018-07-05T16:02:38.509Z,5.67
2018-07-05T16:05:25.700Z,5.60
2018-07-05T16:08:13.630Z,6.23
2018-07-05T16:11:00.881Z,5.77
2018-07-05T16:13:48.142Z,5.57
2018-07-05T16:16:35.331Z,5.60
2018-07-05T16:19:22.433Z,5.63
2018-07-05T16:22:09.715Z,5.50
2018-07-05T16:24:57.164Z,5.00
2018-07-05T16:27:38.483Z,8.23
2018-07-05T16:30:26.210Z,6.20
2018-07-05T16:33:13.714Z,5.40
2018-07-05T16:36:00.934Z,6.17
2018-07-05T16:38:47.951Z,5.70
2018-07-05T16:41:34.844Z,5.63
2018-07-05T16:44:22.074Z,6.17
2018-07-05T16:47:09.202Z,5.73
2018-07-05T16:49:56.220Z,5.63
2018-07-05T16:52:43.737Z,5.70
2018-07-05T16:55:30.676Z,5.57
2018-07-05T16:58:17.840Z,5.70
2018-07-05T17:01:04.722Z,6.30
2018-07-05T17:03:52.725Z,5.50
2018-07-05T17:06:40.599Z,5.40
2018-07-05T17:09:27.660Z,5.80
2018-07-05T17:12:14.983Z,5.30
2018-07-05T17:15:01.908Z,5.83
2018-07-05T17:17:49.063Z,5.97
2018-07-05T17:20:36.539Z,5.80
2018-07-05T17:23:23.602Z,5.83
2018-07-05T17:26:11.166Z,6.30
2018-07-05T17:28:59.817Z,6.40
2018-07-05T17:31:47.378Z,5.80
2018-07-05T17:34:28.138Z,6.50
2018-07-05T17:37:15.391Z,6.10
2018-07-05T17:40:02.499Z,6.17
2018-07-05T17:42:49.763Z,6.00
2018-07-05T17:45:38.162Z,6.40
2018-07-05T17:48:25.211Z,6.67
2018-07-05T17:51:13.066Z,6.80
2018-07-05T17:54:00.015Z,6.87
2018-07-05T17:56:47.477Z,6.73
2018-07-05T17:59:35.177Z,6.70
2018-07-05T18:02:16.493Z,6.60
2018-07-05T18:05:03.603Z,6.83
2018-07-05T18:07:50.893Z,6.73
2018-07-05T18:10:32.331Z,6.73
2018-07-05T18:13:19.260Z,6.73
2018-07-05T18:16:07.053Z,7.00
2018-07-05T18:18:54.488Z,5.97
2018-07-05T18:21:42.025Z,7.27
2018-07-05T18:24:29.350Z,6.23
2018-07-05T18:27:17.075Z,7.10
2018-07-05T18:30:04.562Z,6.30
2018-07-05T18:32:51.699Z,7.00
2018-07-05T18:35:39.230Z,6.40
2018-07-05T18:38:26.224Z,6.80
2018-07-05T18:41:13.992Z,6.57
2018-07-05T18:44:01.287Z,6.53
2018-07-05T18:46:48.584Z,6.53
2018-07-05T18:49:36.664Z,6.47
2018-07-05T18:52:24.802Z,6.60
2018-07-05T18:55:12.538Z,6.90
2018-07-05T18:58:00.154Z,6.50
2018-07-05T19:00:48.169Z,7.10
2018-07-05T19:03:36.369Z,7.40
2018-07-05T19:06:26.515Z,7.03
2018-07-05T19:09:14.772Z,6.77
2018-07-05T19:12:02.112Z,6.67
2018-07-05T19:14:50.113Z,7.33
2018-07-05T19:17:39.513Z,7.00
2018-07-05T19:20:28.836Z,6.70
2018-07-05T19:23:17.784Z,7.40
2018-07-05T19:26:04.856Z,7.23
2018-07-05T19:28:53.950Z,7.20
2018-07-05T19:31:35.847Z,6.60
2018-07-05T19:34:22.916Z,7.23
2018-07-05T19:37:20.060Z,7.43
2018-07-05T19:40:07.902Z,7.47
2018-07-05T19:42:55.813Z,7.90
2018-07-05T19:45:37.764Z,7.67
2018-07-05T19:48:20.411Z,8.30
2018-07-05T19:51:02.287Z,8.40
2018-07-05T19:53:49.836Z,7.40
2018-07-05T19:56:37.759Z,8.03
2018-07-05T19:59:26.074Z,7.43
2018-07-05T20:02:15.987Z,8.20
2018-07-05T20:04:58.366Z,8.23
2018-07-05T20:07:46.486Z,8.43
2018-07-05T20:10:34.810Z,8.60
2018-07-05T20:13:24.717Z,12.33
2018-07-05T20:16:13.302Z,16.40
2018-07-05T20:19:01.765Z,10.10
2018-07-05T20:21:50.209Z,16.23
2018-07-05T20:24:40.113Z,9.77
2018-07-05T20:27:28.143Z,8.83
2018-07-05T20:30:16.253Z,8.93
2018-07-05T20:33:03.867Z,10.47
2018-07-05T20:35:53.323Z,10.23
2018-07-05T20:38:41.408Z,13.23
2018-07-05T20:41:30.288Z,9.00
2018-07-05T20:44:12.621Z,9.03
2018-07-05T20:47:00.608Z,8.93
2018-07-05T20:49:49.024Z,8.70
2018-07-05T20:52:37.703Z,8.53
2018-07-05T20:55:25.354Z,9.07
2018-07-05T20:58:06.913Z,9.13
2018-07-05T21:00:54.124Z,9.33
2018-07-05T21:03:45.558Z,9.47
2018-07-05T21:06:32.625Z,8.90
2018-07-05T21:09:20.996Z,9.17
2018-07-05T21:12:07.991Z,9.27
2018-07-05T21:14:55.781Z,9.23
2018-07-05T21:17:43.050Z,9.80
2018-07-05T21:20:30.286Z,9.63
2018-07-05T21:23:17.529Z,10.10
2018-07-05T21:26:04.627Z,9.37
2018-07-05T21:28:52.418Z,9.60
2018-07-05T21:31:39.467Z,10.23
2018-07-05T21:34:26.650Z,9.60
2018-07-05T21:37:13.704Z,9.87
2018-07-05T21:40:00.816Z,10.00
2018-07-05T21:42:48.500Z,9.50
2018-07-05T21:45:35.664Z,10.00
2018-07-05T21:48:23.485Z,10.17
2018-07-05T21:51:10.631Z,10.23
2018-07-05T21:53:57.809Z,10.40
2018-07-05T21:56:44.969Z,10.13
2018-07-05T21:59:32.062Z,11.23
2018-07-05T22:02:19.267Z,11.03
2018-07-05T22:05:10.301Z,11.03
2018-07-05T22:07:57.629Z,10.47
2018-07-05T22:10:44.851Z,11.30
2018-07-05T22:13:32.786Z,11.03
2018-07-05T22:16:19.869Z,10.93
2018-07-05T22:19:12.517Z,11.27
2018-07-05T22:21:58.741Z,11.30
2018-07-05T22:24:50.664Z,11.13
2018-07-05T22:27:42.894Z,11.60
2018-07-05T22:31:35.228Z,12.93
2018-07-05T22:34:17.071Z,11.63
2018-07-05T22:37:04.061Z,11.20
2018-07-05T22:39:51.985Z,11.90
2018-07-05T22:42:39.621Z,11.90
2018-07-05T22:45:27.131Z,11.93
2018-07-05T22:48:14.497Z,11.60
2018-07-05T22:51:01.972Z,12.37
2018-07-05T22:53:49.118Z,11.70
2018-07-05T22:56:36.134Z,11.70
2018-07-05T22:59:23.116Z,11.70
2018-07-05T23:02:10.216Z,12.10
2018-07-05T23:04:57.509Z,11.83
2018-07-05T23:07:44.650Z,11.73
2018-07-05T23:10:31.717Z,11.73
2018-07-05T23:13:19.988Z,12.13
2018-07-05T23:16:07.757Z,12.07
2018-07-05T23:18:54.649Z,11.87
2018-07-05T23:21:42.504Z,11.93
2018-07-05T23:24:29.412Z,12.73
2018-07-05T23:27:16.584Z,11.90
2018-07-05T23:30:03.598Z,12.50
2018-07-05T23:32:51.128Z,12.73
2018-07-05T23:35:38.028Z,12.83
2018-07-05T23:38:25.551Z,12.83
2018-07-05T23:41:06.442Z,12.10
2018-07-05T23:43:54.059Z,11.87
2018-07-05T23:46:40.997Z,12.30
2018-07-05T23:49:28.192Z,12.30
2018-07-05T23:52:15.112Z,12.10
2018-07-05T23:55:02.143Z,11.73
2018-07-05T23:57:49.134Z,11.97
